createdAt,value
2022-12-08T00:01:11.091Z,15.16
2022-12-08T00:03:38.616Z,15.04
2022-12-08T00:06:07.926Z,15.15
2022-12-08T00:08:34.722Z,15.12
2022-12-08T00:11:01.362Z,14.48
2022-12-08T00:13:28.059Z,15.10
2022-12-08T00:16:00.913Z,14.92
2022-12-08T00:18:27.615Z,15.58
2022-12-08T00:20:58.856Z,15.21
2022-12-08T00:23:25.996Z,15.19
2022-12-08T00:25:53.124Z,14.77
2022-12-08T00:28:20.032Z,15.07
2022-12-08T00:30:46.808Z,15.14
2022-12-08T00:33:13.475Z,14.94
2022-12-08T00:35:43.267Z,14.99
2022-12-08T00:38:10.129Z,14.73
2022-12-08T00:40:36.803Z,14.59
2022-12-08T00:43:03.444Z,14.71
2022-12-08T00:45:30.210Z,14.77
2022-12-08T00:47:56.890Z,15.28
2022-12-08T00:50:23.567Z,15.17
2022-12-08T00:52:50.716Z,14.72
2022-12-08T00:55:17.531Z,15.57
2022-12-08T00:57:44.653Z,15.37
2022-12-08T01:00:11.893Z,14.99
2022-12-08T01:02:38.968Z,15.86
2022-12-08T01:05:06.004Z,15.91
2022-12-08T01:07:32.655Z,15.91
2022-12-08T01:09:59.674Z,15.82
2022-12-08T01:12:28.501Z,15.83
2022-12-08T01:14:59.207Z,15.94
2022-12-08T01:17:28.869Z,15.97
2022-12-08T01:19:55.476Z,15.78
2022-12-08T01:22:22.081Z,15.96
2022-12-08T01:24:51.743Z,15.67
2022-12-08T01:27:18.361Z,16.54
2022-12-08T01:29:44.988Z,16.35
2022-12-08T01:32:11.697Z,16.83
2022-12-08T01:34:38.448Z,16.09
2022-12-08T01:37:05.358Z,15.53
2022-12-08T01:39:31.997Z,16.08
2022-12-08T01:41:58.655Z,16.46
2022-12-08T01:44:25.256Z,15.77
2022-12-08T01:46:54.618Z,15.80
2022-12-08T01:49:32.948Z,16.12
2022-12-08T01:52:13.656Z,16.09
2022-12-08T01:54:49.210Z,16.07
2022-12-08T01:57:27.640Z,15.98
2022-12-08T02:00:04.303Z,15.95
2022-12-08T02:02:44.187Z,16.19
2022-12-08T02:05:11.566Z,16.13
2022-12-08T02:07:38.265Z,16.06
2022-12-08T02:10:05.811Z,16.05
2022-12-08T02:12:33.186Z,15.88
2022-12-08T02:15:04.774Z,16.01
2022-12-08T02:18:12.809Z,16.12
2022-12-08T02:20:58.295Z,16.09
2022-12-08T02:23:51.599Z,16.65
2022-12-08T02:26:56.425Z,16.29
2022-12-08T02:29:32.159Z,16.20
2022-12-08T02:31:58.760Z,15.77
2022-12-08T02:34:27.990Z,16.20
2022-12-08T02:37:16.873Z,16.17
2022-12-08T02:40:23.038Z,16.11
2022-12-08T02:43:06.899Z,16.27
2022-12-08T02:45:41.501Z,16.33
2022-12-08T02:48:10.381Z,16.65
2022-12-08T02:50:37.146Z,16.54
2022-12-08T02:53:03.848Z,16.26
2022-12-08T02:55:59.938Z,16.88
2022-12-08T02:58:48.353Z,16.72
2022-12-08T03:01:59.095Z,16.23
2022-12-08T03:04:42.525Z,16.52
2022-12-08T03:07:09.270Z,16.52
2022-12-08T03:09:54.524Z,16.39
2022-12-08T03:12:59.789Z,16.68
2022-12-08T03:15:27.784Z,16.54
2022-12-08T03:17:58.465Z,16.78
2022-12-08T03:20:28.004Z,17.17
2022-12-08T03:22:59.797Z,16.96
2022-12-08T03:25:34.827Z,16.98
2022-12-08T03:28:01.620Z,16.96
2022-12-08T03:30:36.640Z,17.08
2022-12-08T03:33:29.988Z,16.76
2022-12-08T03:36:00.663Z,17.29
2022-12-08T03:38:43.651Z,17.27
2022-12-08T03:41:11.721Z,16.58
2022-12-08T03:43:38.375Z,17.11
2022-12-08T03:46:05.145Z,17.27
2022-12-08T03:48:31.888Z,16.63
2022-12-08T03:50:58.678Z,16.40
2022-12-08T03:53:27.705Z,16.85
2022-12-08T03:55:54.859Z,17.43
2022-12-08T03:58:21.540Z,16.91
2022-12-08T04:00:48.173Z,16.82
2022-12-08T04:03:14.915Z,17.00
2022-12-08T04:05:41.575Z,16.74
2022-12-08T04:08:08.255Z,16.29
2022-12-08T04:10:35.012Z,16.74
2022-12-08T04:13:18.519Z,17.13
2022-12-08T04:15:59.047Z,16.70
2022-12-08T04:18:25.878Z,16.98
2022-12-08T04:20:52.803Z,16.64
2022-12-08T04:23:19.499Z,16.68
2022-12-08T04:25:46.114Z,17.57
2022-12-08T04:28:12.830Z,16.83
2022-12-08T04:30:39.731Z,16.81
2022-12-08T04:33:06.374Z,16.92
2022-12-08T04:35:33.195Z,16.74
2022-12-08T04:37:59.884Z,16.60
2022-12-08T04:40:27.044Z,16.94
2022-12-08T04:42:53.952Z,17.44
2022-12-08T04:45:20.617Z,17.51
2022-12-08T04:47:47.304Z,17.09
2022-12-08T04:50:14.406Z,16.99
2022-12-08T04:52:41.063Z,16.84
2022-12-08T04:55:08.040Z,17.15
2022-12-08T04:57:35.168Z,17.03
2022-12-08T05:00:02.046Z,16.52
2022-12-08T05:02:29.295Z,16.64
2022-12-08T05:04:55.948Z,16.70
2022-12-08T05:07:22.583Z,16.93
2022-12-08T05:09:49.338Z,16.70
2022-12-08T05:12:16.015Z,16.91
2022-12-08T05:14:47.635Z,16.88
2022-12-08T05:17:18.080Z,16.41
2022-12-08T05:19:44.947Z,17.15
2022-12-08T05:22:11.747Z,17.25
2022-12-08T05:24:42.497Z,18.11
2022-12-08T05:27:12.427Z,17.76
2022-12-08T05:29:39.079Z,17.68
2022-12-08T05:32:06.137Z,18.06
2022-12-08T05:34:32.826Z,17.97
2022-12-08T05:36:59.509Z,18.40
2022-12-08T05:39:26.206Z,18.63
2022-12-08T05:41:52.829Z,18.05
2022-12-08T05:44:19.536Z,18.60
2022-12-08T05:46:46.757Z,19.15
2022-12-08T05:49:13.914Z,18.99
2022-12-08T05:51:40.932Z,18.60
2022-12-08T05:54:07.657Z,18.64
2022-12-08T05:56:34.343Z,18.61
2022-12-08T05:59:01.429Z,18.66
2022-12-08T06:01:31.888Z,18.86
2022-12-08T06:04:01.566Z,18.10
2022-12-08T06:06:29.040Z,18.68
2022-12-08T06:08:56.037Z,18.74
2022-12-08T06:11:31.359Z,17.53
2022-12-08T06:13:58.958Z,16.36
2022-12-08T06:16:27.183Z,16.89
2022-12-08T06:18:54.425Z,17.57
2022-12-08T06:21:21.203Z,18.32
2022-12-08T06:23:50.273Z,18.82
2022-12-08T06:26:18.182Z,17.88
2022-12-08T06:28:45.363Z,17.79
2022-12-08T06:31:24.992Z,17.96
2022-12-08T06:33:53.676Z,17.24
2022-12-08T06:36:24.731Z,17.12
2022-12-08T06:38:52.269Z,17.63
2022-12-08T06:41:19.245Z,16.79
2022-12-08T06:43:46.927Z,16.46
2022-12-08T06:46:16.856Z,16.18
2022-12-08T06:48:44.310Z,16.59
2022-12-08T06:51:17.259Z,16.06
2022-12-08T06:53:44.944Z,16.49
2022-12-08T06:56:12.730Z,16.13
2022-12-08T06:58:39.964Z,16.34
2022-12-08T07:01:12.970Z,16.11
2022-12-08T07:03:41.025Z,16.27
2022-12-08T07:06:07.969Z,16.14
2022-12-08T07:08:35.476Z,15.85
2022-12-08T07:11:18.022Z,15.92
2022-12-08T07:13:47.912Z,16.04
2022-12-08T07:16:14.709Z,16.15
2022-12-08T07:18:41.483Z,15.96
2022-12-08T07:21:11.124Z,16.19
2022-12-08T07:23:41.322Z,16.51
2022-12-08T07:26:11.625Z,15.60
2022-12-08T07:28:40.460Z,16.22
2022-12-08T07:31:15.797Z,16.43
2022-12-08T07:33:43.956Z,16.63
2022-12-08T07:36:12.327Z,17.61
2022-12-08T07:38:39.470Z,17.80
2022-12-08T07:41:06.201Z,17.37
2022-12-08T07:43:32.930Z,16.70
2022-12-08T07:45:59.967Z,15.72
2022-12-08T07:48:26.949Z,14.80
2022-12-08T07:51:01.228Z,15.38
2022-12-08T07:53:29.315Z,16.05
2022-12-08T07:55:56.711Z,15.49
2022-12-08T07:58:24.212Z,15.84
2022-12-08T08:00:51.617Z,15.34
2022-12-08T08:03:18.820Z,15.18
2022-12-08T08:05:45.684Z,15.10
2022-12-08T08:08:12.381Z,15.22
2022-12-08T08:10:40.445Z,15.71
2022-12-08T08:13:07.987Z,15.70
2022-12-08T08:15:34.997Z,15.72
2022-12-08T08:18:01.736Z,16.27
2022-12-08T08:20:30.912Z,15.69
2022-12-08T08:22:58.548Z,16.01
2022-12-08T08:25:25.207Z,15.55
2022-12-08T08:27:51.848Z,15.70
2022-12-08T08:30:20.965Z,15.16
2022-12-08T08:32:48.821Z,15.73
2022-12-08T08:35:15.699Z,16.16
2022-12-08T08:37:47.243Z,16.65
2022-12-08T08:40:15.832Z,15.93
2022-12-08T08:42:42.561Z,15.62
2022-12-08T08:45:09.514Z,15.72
2022-12-08T08:47:36.266Z,14.97
2022-12-08T08:50:03.794Z,15.76
2022-12-08T08:52:30.865Z,15.36
2022-12-08T08:54:57.527Z,15.20
2022-12-08T08:57:26.001Z,14.98
2022-12-08T08:59:53.904Z,14.75
2022-12-08T09:02:20.691Z,14.55
2022-12-08T09:04:47.438Z,14.01
2022-12-08T09:07:14.349Z,13.97
2022-12-08T09:09:41.164Z,14.15
2022-12-08T09:12:07.840Z,13.85
2022-12-08T09:14:34.794Z,13.07
2022-12-08T09:17:01.412Z,13.13
2022-12-08T09:19:28.101Z,13.36
2022-12-08T09:21:55.013Z,13.01
2022-12-08T09:24:22.023Z,11.85
2022-12-08T09:26:49.223Z,11.60
2022-12-08T09:29:17.747Z,12.06
2022-12-08T09:31:44.521Z,12.55
2022-12-08T09:34:12.870Z,12.87
2022-12-08T09:36:40.480Z,12.59
2022-12-08T09:39:07.534Z,12.96
2022-12-08T09:41:54.436Z,12.11
2022-12-08T09:44:39.714Z,12.46
2022-12-08T09:47:18.206Z,12.79
2022-12-08T09:49:54.203Z,15.39
2022-12-08T09:52:38.433Z,16.34
2022-12-08T09:55:20.028Z,15.60
2022-12-08T09:57:59.084Z,15.31
2022-12-08T10:00:25.925Z,14.82
2022-12-08T10:02:52.676Z,13.61
2022-12-08T10:05:21.586Z,14.36
2022-12-08T10:07:55.522Z,15.90
2022-12-08T10:10:31.934Z,15.94
2022-12-08T10:13:23.275Z,14.67
2022-12-08T10:16:06.150Z,15.47
2022-12-08T10:18:34.905Z,16.09
2022-12-08T10:21:27.120Z,16.44
2022-12-08T10:24:05.942Z,16.38
2022-12-08T10:26:32.629Z,16.77
2022-12-08T10:29:02.197Z,17.49
2022-12-08T10:31:31.397Z,16.88
2022-12-08T10:34:22.136Z,17.02
2022-12-08T10:36:59.392Z,16.72
2022-12-08T10:39:30.314Z,16.06
2022-12-08T10:42:19.044Z,16.62
2022-12-08T10:44:54.190Z,17.36
2022-12-08T10:47:24.251Z,17.86
2022-12-08T10:50:21.719Z,17.23
2022-12-08T10:52:59.955Z,17.49
2022-12-08T10:55:42.742Z,17.15
2022-12-08T10:58:31.796Z,17.08
2022-12-08T11:01:28.931Z,17.33
2022-12-08T11:04:00.184Z,17.56
2022-12-08T11:06:37.013Z,18.32
2022-12-08T11:09:21.960Z,17.45
2022-12-08T11:11:52.595Z,15.73
2022-12-08T11:14:24.700Z,17.23
2022-12-08T11:17:25.134Z,17.15
2022-12-08T11:20:24.408Z,17.47
2022-12-08T11:22:54.776Z,17.59
2022-12-08T11:25:27.401Z,17.44
2022-12-08T11:27:58.540Z,17.54
2022-12-08T11:30:32.036Z,17.49
2022-12-08T11:33:06.844Z,17.78
2022-12-08T11:35:47.795Z,17.97
2022-12-08T11:38:22.693Z,18.38
2022-12-08T11:41:10.835Z,17.47
2022-12-08T11:43:40.851Z,17.69
2022-12-08T11:46:40.414Z,18.67
2022-12-08T11:49:15.477Z,18.45
2022-12-08T11:52:02.531Z,18.40
2022-12-08T11:55:04.428Z,18.21
2022-12-08T11:57:31.159Z,18.78
2022-12-08T12:00:00.891Z,17.87
2022-12-08T12:02:32.065Z,18.52
2022-12-08T12:05:10.928Z,17.98
2022-12-08T12:08:10.296Z,18.37
2022-12-08T12:11:16.228Z,17.42
2022-12-08T12:14:13.922Z,17.52
2022-12-08T12:16:52.943Z,17.40
2022-12-08T12:19:24.105Z,16.86
2022-12-08T12:21:56.227Z,17.60
2022-12-08T12:24:35.614Z,17.87
2022-12-08T12:27:07.925Z,17.70
2022-12-08T12:29:38.902Z,18.08
2022-12-08T12:32:11.695Z,17.61
2022-12-08T12:34:55.896Z,18.19
2022-12-08T12:37:42.973Z,18.41
2022-12-08T12:40:22.145Z,18.29
2022-12-08T12:43:08.655Z,18.24
2022-12-08T12:45:36.963Z,17.06
2022-12-08T12:48:03.524Z,16.82
2022-12-08T12:50:33.228Z,17.59
2022-12-08T12:53:20.153Z,17.78
2022-12-08T12:55:54.979Z,17.41
2022-12-08T12:58:34.842Z,17.12
2022-12-08T13:01:10.658Z,16.48
2022-12-08T13:03:39.920Z,16.43
2022-12-08T13:06:14.156Z,16.72
2022-12-08T13:08:52.687Z,16.96
2022-12-08T13:11:21.035Z,17.06
2022-12-08T13:14:00.487Z,16.31
2022-12-08T13:16:33.703Z,16.58
2022-12-08T13:19:05.680Z,16.85
2022-12-08T13:21:36.856Z,16.43
2022-12-08T13:24:34.119Z,15.60
2022-12-08T13:27:03.427Z,15.87
2022-12-08T13:29:31.711Z,15.95
2022-12-08T13:32:24.360Z,16.22
2022-12-08T13:35:00.651Z,16.33
2022-12-08T13:37:30.241Z,15.84
2022-12-08T13:40:04.039Z,16.22
2022-12-08T13:42:40.036Z,15.88
2022-12-08T13:45:33.468Z,16.03
2022-12-08T13:48:35.144Z,15.85
2022-12-08T13:57:10.106Z,15.63
2022-12-08T13:59:44.601Z,16.00
2022-12-08T14:02:45.301Z,15.93
2022-12-08T14:05:19.578Z,16.04
2022-12-08T14:07:53.215Z,15.04
2022-12-08T14:10:25.886Z,14.86
2022-12-08T14:12:59.373Z,14.51
2022-12-08T14:15:26.562Z,14.42
2022-12-08T14:17:57.579Z,15.51
2022-12-08T14:20:52.001Z,15.09
2022-12-08T14:23:20.686Z,15.80
2022-12-08T14:25:48.507Z,16.24
2022-12-08T14:28:15.277Z,16.13
2022-12-08T14:30:42.604Z,15.67
2022-12-08T14:33:16.267Z,15.54
2022-12-08T14:35:42.953Z,15.51
2022-12-08T14:38:17.934Z,16.22
2022-12-08T14:40:45.643Z,15.87
2022-12-08T14:43:19.559Z,15.53
2022-12-08T14:45:46.133Z,15.31
2022-12-08T14:48:26.669Z,15.54
2022-12-08T14:51:16.451Z,15.87
2022-12-08T14:53:57.965Z,15.88
2022-12-08T14:56:38.618Z,15.57
2022-12-08T14:59:37.715Z,15.46
2022-12-08T15:02:16.563Z,15.54
2022-12-08T15:04:47.943Z,15.61
2022-12-08T15:07:19.050Z,15.45
2022-12-08T15:10:10.682Z,15.13
2022-12-08T15:12:37.624Z,15.79
2022-12-08T15:15:10.277Z,15.98
2022-12-08T15:17:50.063Z,16.05
2022-12-08T15:20:44.414Z,15.76
2022-12-08T15:23:39.284Z,15.16
2022-12-08T15:26:06.148Z,15.06
2022-12-08T15:28:32.940Z,14.61
2022-12-08T15:30:59.655Z,15.39
2022-12-08T15:33:27.180Z,15.97
2022-12-08T15:35:53.957Z,15.49
2022-12-08T15:38:29.103Z,15.22
2022-12-08T15:40:57.648Z,15.57
2022-12-08T15:43:24.347Z,15.30
2022-12-08T15:45:59.172Z,14.78
2022-12-08T15:48:29.946Z,15.65
2022-12-08T15:50:57.943Z,15.47
2022-12-08T15:53:25.133Z,15.35
2022-12-08T15:58:55.580Z,15.59
2022-12-08T16:01:23.984Z,15.68
2022-12-08T16:09:30.820Z,16.38
2022-12-08T16:12:06.559Z,15.45
2022-12-08T16:17:21.488Z,16.34
2022-12-08T16:19:48.195Z,16.08
2022-12-08T16:25:18.885Z,16.21
2022-12-08T16:28:01.456Z,16.59
2022-12-08T16:30:33.205Z,16.74
2022-12-08T16:32:59.840Z,16.12
2022-12-08T16:35:26.460Z,16.44
2022-12-08T16:37:53.119Z,17.00
2022-12-08T16:40:20.003Z,16.86
2022-12-08T16:42:46.663Z,16.49
2022-12-08T16:45:16.689Z,16.79
2022-12-08T16:47:49.991Z,17.10
2022-12-08T16:50:28.897Z,17.03
2022-12-08T16:52:59.066Z,18.05
2022-12-08T16:55:26.365Z,18.30
2022-12-08T16:57:54.318Z,17.37
2022-12-08T17:00:24.228Z,22.06
2022-12-08T17:02:52.018Z,22.98
2022-12-08T17:05:22.565Z,20.33
2022-12-08T17:07:52.271Z,18.81
2022-12-08T17:10:22.563Z,18.31
2022-12-08T17:12:49.930Z,17.68
2022-12-08T17:15:19.379Z,16.92
2022-12-08T17:17:46.296Z,16.95
2022-12-08T17:20:16.161Z,17.46
2022-12-08T17:22:44.944Z,17.52
2022-12-08T17:25:12.241Z,17.44
2022-12-08T17:27:39.832Z,16.98
2022-12-08T17:30:09.695Z,17.46
2022-12-08T17:32:38.613Z,19.07
2022-12-08T17:35:06.763Z,17.47
2022-12-08T17:37:34.419Z,18.06
2022-12-08T17:40:01.882Z,17.17
2022-12-08T17:42:28.714Z,17.38
2022-12-08T17:44:55.750Z,17.27
2022-12-08T17:47:22.603Z,17.20
2022-12-08T17:49:49.384Z,17.76
2022-12-08T17:52:16.124Z,17.75
2022-12-08T17:54:43.859Z,19.06
2022-12-08T17:57:10.650Z,20.45
2022-12-08T17:59:37.444Z,20.53
2022-12-08T18:02:04.274Z,18.63
2022-12-08T18:04:31.551Z,18.59
2022-12-08T18:06:58.448Z,18.31
2022-12-08T18:09:26.244Z,18.41
2022-12-08T18:11:53.132Z,18.41
2022-12-08T18:14:20.134Z,18.36
2022-12-08T18:16:47.626Z,19.23
2022-12-08T18:19:15.695Z,19.66
2022-12-08T18:21:43.145Z,19.78
2022-12-08T18:24:18.190Z,20.43
2022-12-08T18:26:45.313Z,21.08
2022-12-08T18:29:13.255Z,21.47
2022-12-08T18:31:40.035Z,21.42
2022-12-08T18:34:06.633Z,21.75
2022-12-08T18:36:33.582Z,21.34
2022-12-08T18:39:01.058Z,20.88
2022-12-08T18:41:30.073Z,21.33
2022-12-08T18:43:57.152Z,20.80
2022-12-08T18:46:25.907Z,21.21
2022-12-08T18:48:53.250Z,20.38
2022-12-08T18:51:23.603Z,21.49
2022-12-08T18:53:50.470Z,21.81
2022-12-08T18:56:26.967Z,20.59
2022-12-08T18:58:59.866Z,19.94
2022-12-08T19:01:30.041Z,19.83
2022-12-08T19:04:26.858Z,18.98
2022-12-08T19:06:45.511Z,19.32
2022-12-08T19:09:12.787Z,19.26
2022-12-08T19:11:39.574Z,18.15
2022-12-08T19:14:07.444Z,18.01
2022-12-08T19:16:35.062Z,18.69
2022-12-08T19:19:01.953Z,19.20
2022-12-08T19:21:29.036Z,20.22
2022-12-08T19:23:56.376Z,20.44
2022-12-08T19:26:23.128Z,21.04
2022-12-08T19:28:49.825Z,20.76
2022-12-08T19:31:16.600Z,21.39
2022-12-08T19:33:43.394Z,20.26
2022-12-08T19:36:16.090Z,19.61
2022-12-08T19:38:46.861Z,18.84
2022-12-08T19:41:13.735Z,19.24
2022-12-08T19:43:40.359Z,19.27
2022-12-08T19:46:08.500Z,18.89
2022-12-08T19:48:35.249Z,17.83
2022-12-08T19:51:01.941Z,17.74
2022-12-08T19:53:28.613Z,18.22
2022-12-08T19:55:55.855Z,19.16
2022-12-08T19:58:22.566Z,19.47
2022-12-08T20:00:49.661Z,25.79
2022-12-08T20:03:20.248Z,41.99
2022-12-08T20:05:49.601Z,36.63
2022-12-08T20:08:17.800Z,30.40
2022-12-08T20:10:45.064Z,25.26
2022-12-08T20:13:12.696Z,22.37
2022-12-08T20:15:39.541Z,21.22
2022-12-08T20:18:06.633Z,21.83
2022-12-08T20:20:33.338Z,21.34
2022-12-08T20:23:00.046Z,28.53
2022-12-08T20:25:26.758Z,30.14
2022-12-08T20:27:53.726Z,32.94
2022-12-08T20:30:20.489Z,27.73
2022-12-08T20:32:47.219Z,26.97
2022-12-08T20:35:15.835Z,23.54
2022-12-08T20:37:42.814Z,27.97
2022-12-08T20:40:09.841Z,25.09
2022-12-08T20:42:36.484Z,25.39
2022-12-08T20:45:03.372Z,32.17
2022-12-08T20:47:30.213Z,35.13
2022-12-08T20:49:57.046Z,33.13
2022-12-08T20:52:23.866Z,28.55
2022-12-08T20:54:50.747Z,27.88
2022-12-08T20:57:17.737Z,26.05
2022-12-08T20:59:44.419Z,24.90
2022-12-08T21:02:11.720Z,25.41
2022-12-08T21:04:38.538Z,25.75
2022-12-08T21:07:05.536Z,27.59
2022-12-08T21:09:32.383Z,26.65
2022-12-08T21:11:59.221Z,24.02
2022-12-08T21:14:26.128Z,23.14
2022-12-08T21:16:55.109Z,22.32
2022-12-08T21:19:24.989Z,22.36
2022-12-08T21:21:51.928Z,23.56
2022-12-08T21:24:19.090Z,22.99
2022-12-08T21:26:46.004Z,21.59
2022-12-08T21:29:13.703Z,23.19
2022-12-08T21:31:40.670Z,21.78
2022-12-08T21:34:07.431Z,22.73
2022-12-08T21:36:34.427Z,21.03
2022-12-08T21:39:01.199Z,20.68
2022-12-08T21:41:28.645Z,20.73
2022-12-08T21:43:55.377Z,21.05
2022-12-08T21:46:22.330Z,20.48
2022-12-08T21:48:49.254Z,22.13
2022-12-08T21:51:16.046Z,22.17
2022-12-08T21:53:42.734Z,22.08
2022-12-08T21:56:09.864Z,21.77
2022-12-08T21:58:36.681Z,20.72
2022-12-08T22:01:08.444Z,20.95
2022-12-08T22:03:36.713Z,20.84
2022-12-08T22:06:05.486Z,21.01
2022-12-08T22:08:32.351Z,21.17
2022-12-08T22:10:59.550Z,21.09
2022-12-08T22:13:26.913Z,21.07
2022-12-08T22:16:02.684Z,21.90
2022-12-08T22:18:29.819Z,21.35
2022-12-08T22:20:56.852Z,20.77
2022-12-08T22:23:24.243Z,21.83
2022-12-08T22:26:02.096Z,21.58
2022-12-08T22:28:32.806Z,22.74
2022-12-08T22:30:59.907Z,22.99
2022-12-08T22:33:29.218Z,22.11
2022-12-08T22:36:08.153Z,21.85
2022-12-08T22:38:37.359Z,20.84
2022-12-08T22:41:05.609Z,21.27
2022-12-08T22:43:33.481Z,21.27
2022-12-08T22:46:00.708Z,21.24
2022-12-08T22:48:27.511Z,21.26
2022-12-08T22:51:00.699Z,21.14
2022-12-08T22:53:30.420Z,21.44
2022-12-08T22:55:57.028Z,21.21
2022-12-08T22:58:24.333Z,21.57
2022-12-08T23:00:51.043Z,21.47
2022-12-08T23:03:17.789Z,21.14
2022-12-08T23:05:46.047Z,20.42
2022-12-08T23:08:15.469Z,21.50
2022-12-08T23:10:43.152Z,22.45
2022-12-08T23:13:10.692Z,22.49
2022-12-08T23:15:38.375Z,22.72
2022-12-08T23:18:06.304Z,22.77
2022-12-08T23:20:35.075Z,23.13
2022-12-08T23:23:01.775Z,22.86
2022-12-08T23:25:28.597Z,22.88
2022-12-08T23:27:55.243Z,23.01
2022-12-08T23:30:24.013Z,22.79
2022-12-08T23:32:54.008Z,22.10
2022-12-08T23:35:20.887Z,22.24
2022-12-08T23:37:47.861Z,22.29
2022-12-08T23:40:14.582Z,22.67
2022-12-08T23:42:41.535Z,22.85
2022-12-08T23:45:08.866Z,22.30
2022-12-08T23:47:35.987Z,23.11
2022-12-08T23:50:03.680Z,22.33
2022-12-08T23:52:30.827Z,22.73
2022-12-08T23:54:57.572Z,21.88
2022-12-08T23:57:24.362Z,22.25
2022-12-08T23:59:51.105Z,21.79
